Time;durP1;ratioP1;P1;durP2;ratioP2;P2;SDS_P1;SDS_P2;PMS_P1;PMS_P2;Temp;Humidity;BMP_temperature;BMP_pressure;BME280_temperature;BME280_humidity;BME280_pressure;Samples;Min_cycle;Max_cycle;Signal;HPM_P1;HPM_P2
2022/12/19 00:02:06;;;;;;;22.73;8.57;;;;;;;;;;5055389;28;20063;-87
2022/12/19 00:04:38;;;;;;;20.52;9.27;;;;;;;;;;5077979;28;20098;-87
2022/12/19 00:07:06;;;;;;;20.92;8.02;;;;;;;;;;5078000;28;20498;-87
2022/12/19 00:09:34;;;;;;;17.98;6.43;;;;;;;;;;5054273;28;20045;-87
2022/12/19 00:12:02;;;;;;;21.98;8.45;;;;;;;;;;5068398;28;20059;-88
2022/12/19 00:14:30;;;;;;;17.85;8.10;;;;;;;;;;5074334;28;20099;-87
2022/12/19 00:17:02;;;;;;;19.77;7.82;;;;;;;;;;5074283;28;20039;-87
2022/12/19 00:19:54;;;;;;;22.95;9.23;;;;;;;;;;5077557;28;20031;-86
2022/12/19 00:22:27;;;;;;;17.88;7.63;;;;;;;;;;5031770;28;20113;-88
2022/12/19 00:25:19;;;;;;;18.45;8.10;;;;;;;;;;5080236;28;20036;-87
2022/12/19 00:27:46;;;;;;;14.95;7.00;;;;;;;;;;5072881;28;20048;-86
2022/12/19 00:30:18;;;;;;;25.00;8.38;;;;;;;;;;5057863;28;20091;-88
2022/12/19 00:32:46;;;;;;;20.52;8.38;;;;;;;;;;5056156;28;20052;-87
2022/12/19 00:35:14;;;;;;;24.10;8.98;;;;;;;;;;5077886;28;20193;-87
2022/12/19 00:37:42;;;;;;;19.95;8.65;;;;;;;;;;5077358;28;20047;-86
2022/12/19 00:40:40;;;;;;;17.10;7.68;;;;;;;;;;5074198;28;20045;-87
2022/12/19 00:43:08;;;;;;;17.75;7.88;;;;;;;;;;5076958;28;20486;-87
2022/12/19 00:45:37;;;;;;;17.15;7.40;;;;;;;;;;5044270;28;20089;-87
2022/12/19 00:48:04;;;;;;;23.05;8.68;;;;;;;;;;5047466;28;20071;-87
2022/12/19 00:50:34;;;;;;;18.35;7.13;;;;;;;;;;5059491;28;20040;-87
2022/12/19 00:56:28;;;;;;;23.08;7.88;;;;;;;;;;5080252;28;20059;-87
2022/12/19 00:59:11;;;;;;;21.73;7.50;;;;;;;;;;5079430;28;20075;-87
2022/12/19 01:01:39;;;;;;;24.40;8.70;;;;;;;;;;5042962;28;20098;-87
2022/12/19 01:04:12;;;;;;;21.25;9.00;;;;;;;;;;5057515;28;20036;-88
2022/12/19 01:06:58;;;;;;;21.05;7.78;;;;;;;;;;5077391;28;20044;-87
2022/12/19 01:09:35;;;;;;;22.10;8.20;;;;;;;;;;5042441;28;20795;-87
2022/12/19 01:15:17;;;;;;;22.17;8.07;;;;;;;;;;5074566;28;20029;-87
2022/12/19 01:17:50;;;;;;;21.52;9.07;;;;;;;;;;5075098;28;20105;-86
2022/12/19 01:20:47;;;;;;;18.75;8.23;;;;;;;;;;5072548;28;20040;-87
2022/12/19 01:23:16;;;;;;;22.38;8.93;;;;;;;;;;5059250;28;20131;-87
2022/12/19 01:25:51;;;;;;;14.27;7.63;;;;;;;;;;5077459;28;20040;-88
2022/12/19 01:28:44;;;;;;;19.90;8.40;;;;;;;;;;5071040;28;20066;-87
2022/12/19 01:31:12;;;;;;;20.05;8.57;;;;;;;;;;5076683;28;20039;-87
2022/12/19 01:33:42;;;;;;;24.45;8.15;;;;;;;;;;5058746;28;20033;-87
2022/12/19 01:36:12;;;;;;;24.30;8.75;;;;;;;;;;5057980;28;20123;-87
2022/12/19 01:38:40;;;;;;;17.80;8.35;;;;;;;;;;5059135;28;20039;-87
2022/12/19 01:41:09;;;;;;;21.63;8.38;;;;;;;;;;5059519;28;20505;-86
2022/12/19 01:44:06;;;;;;;17.90;7.53;;;;;;;;;;5063886;28;20110;-87
2022/12/19 01:46:39;;;;;;;17.38;7.78;;;;;;;;;;5074855;28;20036;-87
2022/12/19 01:49:14;;;;;;;30.75;9.70;;;;;;;;;;5056257;28;20052;-87
2022/12/19 01:51:46;;;;;;;28.15;10.05;;;;;;;;;;5073246;28;20068;-86
2022/12/19 01:54:21;;;;;;;21.58;8.15;;;;;;;;;;5074104;28;20044;-87
2022/12/19 01:56:57;;;;;;;20.35;8.45;;;;;;;;;;5030281;28;20049;-88
2022/12/19 01:59:46;;;;;;;25.65;8.63;;;;;;;;;;5022839;28;20585;-87
2022/12/19 02:02:29;;;;;;;21.20;8.80;;;;;;;;;;5022182;28;20060;-87
2022/12/19 02:05:00;;;;;;;17.27;7.40;;;;;;;;;;5011358;28;20055;-88
2022/12/19 02:07:29;;;;;;;23.45;8.95;;;;;;;;;;5035319;28;20068;-87
2022/12/19 02:09:58;;;;;;;20.45;7.38;;;;;;;;;;5004019;28;20055;-88
2022/12/19 02:12:38;;;;;;;25.15;9.23;;;;;;;;;;5024096;28;20049;-87
2022/12/19 02:15:17;;;;;;;21.73;7.93;;;;;;;;;;5020155;28;20065;-87
2022/12/19 02:18:17;;;;;;;16.95;6.78;;;;;;;;;;5004371;28;20052;-87
2022/12/19 02:20:50;;;;;;;17.70;7.65;;;;;;;;;;5033210;28;20725;-87
2022/12/19 02:23:50;;;;;;;20.75;8.80;;;;;;;;;;5022151;28;20054;-87
2022/12/19 02:26:36;;;;;;;18.60;7.70;;;;;;;;;;4997855;28;20063;-87
2022/12/19 02:30:03;;;;;;;18.27;7.78;;;;;;;;;;5067051;28;20037;-87
2022/12/19 02:32:46;;;;;;;20.50;7.80;;;;;;;;;;5073143;28;20456;-87
2022/12/19 02:35:39;;;;;;;20.33;7.70;;;;;;;;;;5050879;28;20042;-88
2022/12/19 02:38:24;;;;;;;22.80;7.95;;;;;;;;;;5042133;28;20043;-88
2022/12/19 02:41:05;;;;;;;18.85;6.78;;;;;;;;;;5072399;28;20040;-88
2022/12/19 02:43:59;;;;;;;16.92;7.50;;;;;;;;;;5056235;28;20105;-87
2022/12/19 02:46:51;;;;;;;14.85;6.40;;;;;;;;;;5027696;28;20036;-87
2022/12/19 02:49:24;;;;;;;18.52;7.70;;;;;;;;;;5040372;28;20036;-87
2022/12/19 02:52:31;;;;;;;13.95;6.57;;;;;;;;;;5076994;28;20119;-87
2022/12/19 02:55:15;;;;;;;15.50;7.18;;;;;;;;;;5056200;28;20479;-87
2022/12/19 02:57:50;;;;;;;18.58;8.40;;;;;;;;;;5058913;28;20044;-88
2022/12/19 03:00:24;;;;;;;20.92;8.00;;;;;;;;;;5056590;28;20044;-87
2022/12/19 03:03:19;;;;;;;19.27;7.05;;;;;;;;;;5073721;28;20037;-87
2022/12/19 03:05:57;;;;;;;15.80;7.13;;;;;;;;;;5071758;28;20098;-87
2022/12/19 03:08:35;;;;;;;20.77;7.00;;;;;;;;;;5041189;28;20105;-87
2022/12/19 03:11:12;;;;;;;20.42;8.13;;;;;;;;;;5074480;28;20040;-87
2022/12/19 03:14:04;;;;;;;22.77;7.95;;;;;;;;;;5059283;28;20857;-87
2022/12/19 03:16:36;;;;;;;28.58;7.65;;;;;;;;;;5077992;28;20090;-86
2022/12/19 03:19:11;;;;;;;14.63;6.88;;;;;;;;;;5062254;28;20127;-86
2022/12/19 03:21:42;;;;;;;17.60;7.90;;;;;;;;;;5076697;28;20036;-86
2022/12/19 03:24:12;;;;;;;15.40;7.20;;;;;;;;;;5077596;28;20044;-87
2022/12/19 03:26:47;;;;;;;15.20;6.72;;;;;;;;;;5045550;28;20032;-87
2022/12/19 03:29:28;;;;;;;17.65;7.07;;;;;;;;;;5074734;28;20036;-87
2022/12/19 03:32:00;;;;;;;18.27;8.38;;;;;;;;;;5072956;28;20032;-88
2022/12/19 03:34:34;;;;;;;16.40;7.35;;;;;;;;;;5074449;28;20090;-87
2022/12/19 03:37:13;;;;;;;21.92;8.40;;;;;;;;;;5074109;28;20064;-87
2022/12/19 03:39:49;;;;;;;18.85;7.93;;;;;;;;;;5042580;28;20083;-86
2022/12/19 03:45:15;;;;;;;17.75;8.07;;;;;;;;;;5066170;28;20056;-89
2022/12/19 03:48:02;;;;;;;18.48;7.05;;;;;;;;;;5051243;28;20060;-89
2022/12/19 03:50:41;;;;;;;23.10;9.23;;;;;;;;;;5072736;28;20063;-89
2022/12/19 03:53:45;;;;;;;19.33;7.70;;;;;;;;;;5059960;28;20033;-88
2022/12/19 03:56:24;;;;;;;19.33;8.40;;;;;;;;;;5064880;28;20120;-88
2022/12/19 03:59:43;;;;;;;24.00;8.30;;;;;;;;;;5069243;28;20556;-88
2022/12/19 04:02:13;;;;;;;17.75;7.68;;;;;;;;;;5047530;28;20056;-87
2022/12/19 04:04:45;;;;;;;17.90;7.47;;;;;;;;;;5069791;28;20494;-87
2022/12/19 04:07:19;;;;;;;20.05;8.18;;;;;;;;;;5056271;28;20039;-87
2022/12/19 04:09:48;;;;;;;19.38;8.95;;;;;;;;;;5051853;28;21554;-87
2022/12/19 04:12:54;;;;;;;17.33;8.63;;;;;;;;;;5051646;28;20375;-88
2022/12/19 04:16:23;;;;;;;15.05;6.93;;;;;;;;;;5076917;28;20039;-87
2022/12/19 04:19:17;;;;;;;17.35;9.30;;;;;;;;;;5072935;28;20036;-89
2022/12/19 04:22:03;;;;;;;18.00;8.23;;;;;;;;;;5075178;28;20032;-87
2022/12/19 04:24:36;;;;;;;22.05;8.02;;;;;;;;;;5072432;28;20040;-87
2022/12/19 04:27:07;;;;;;;16.33;7.35;;;;;;;;;;5056823;28;20048;-87
2022/12/19 04:29:36;;;;;;;18.30;8.38;;;;;;;;;;5069942;28;20029;-88
2022/12/19 04:32:07;;;;;;;19.48;7.70;;;;;;;;;;5075417;28;20573;-88
2022/12/19 04:35:01;;;;;;;18.92;8.60;;;;;;;;;;5066667;28;20440;-87
2022/12/19 04:37:52;;;;;;;17.73;7.88;;;;;;;;;;5073061;28;20032;-87
2022/12/19 04:40:20;;;;;;;19.30;8.57;;;;;;;;;;5060495;28;20510;-87
2022/12/19 04:42:48;;;;;;;18.67;7.90;;;;;;;;;;5069490;28;20165;-87
2022/12/19 04:45:16;;;;;;;20.50;8.32;;;;;;;;;;5056237;28;20028;-87
2022/12/19 04:48:09;;;;;;;18.17;7.32;;;;;;;;;;5074233;28;20043;-87
2022/12/19 04:50:39;;;;;;;21.33;7.60;;;;;;;;;;5072695;28;20451;-87
2022/12/19 04:53:08;;;;;;;19.23;7.13;;;;;;;;;;5073180;28;20036;-88
2022/12/19 04:55:39;;;;;;;20.02;7.40;;;;;;;;;;5056763;28;20037;-87
2022/12/19 04:58:12;;;;;;;16.75;7.35;;;;;;;;;;5070039;28;20035;-87
2022/12/19 05:01:13;;;;;;;23.17;8.50;;;;;;;;;;5059329;28;20032;-86
2022/12/19 05:03:46;;;;;;;16.52;7.43;;;;;;;;;;5073930;28;20066;-87
2022/12/19 05:06:24;;;;;;;20.35;8.90;;;;;;;;;;5074071;28;20032;-87
2022/12/19 05:08:52;;;;;;;22.80;8.25;;;;;;;;;;5067587;28;20115;-87
2022/12/19 05:11:20;;;;;;;18.25;8.35;;;;;;;;;;5052232;28;20041;-88
2022/12/19 05:14:14;;;;;;;20.48;8.05;;;;;;;;;;5060830;28;20035;-87
2022/12/19 05:16:42;;;;;;;21.42;8.98;;;;;;;;;;5071328;28;20044;-87
2022/12/19 05:19:35;;;;;;;21.88;8.25;;;;;;;;;;5058912;28;20657;-87
2022/12/19 05:22:02;;;;;;;17.17;7.72;;;;;;;;;;5028787;28;20052;-87
2022/12/19 05:24:30;;;;;;;20.98;7.63;;;;;;;;;;5069183;28;20094;-87
2022/12/19 05:26:58;;;;;;;23.90;9.25;;;;;;;;;;5071096;28;20548;-87
2022/12/19 05:29:26;;;;;;;19.30;8.05;;;;;;;;;;5053801;28;20033;-88
2022/12/19 05:31:54;;;;;;;23.88;8.73;;;;;;;;;;5056784;28;20067;-87
2022/12/19 05:34:23;;;;;;;19.58;8.48;;;;;;;;;;5059492;28;20060;-87
2022/12/19 05:36:50;;;;;;;16.65;8.43;;;;;;;;;;5072817;28;20492;-88
2022/12/19 05:39:22;;;;;;;17.92;7.80;;;;;;;;;;5055408;28;20097;-87
2022/12/19 05:41:50;;;;;;;20.30;7.68;;;;;;;;;;5058607;28;20046;-87
2022/12/19 05:44:23;;;;;;;16.40;8.52;;;;;;;;;;5077707;28;20039;-87
2022/12/19 05:46:52;;;;;;;21.80;8.68;;;;;;;;;;5071581;28;20482;-88
2022/12/19 05:49:46;;;;;;;18.52;7.85;;;;;;;;;;5060112;28;20055;-86
2022/12/19 05:52:38;;;;;;;17.48;9.13;;;;;;;;;;5060579;28;20078;-87
2022/12/19 05:55:07;;;;;;;18.33;7.22;;;;;;;;;;5071007;28;20055;-86
2022/12/19 05:57:40;;;;;;;16.95;7.95;;;;;;;;;;5056874;28;20044;-87
2022/12/19 06:00:09;;;;;;;14.52;7.20;;;;;;;;;;5070795;28;20033;-87
2022/12/19 06:02:38;;;;;;;18.80;7.75;;;;;;;;;;5058100;28;20044;-87
2022/12/19 06:05:12;;;;;;;24.27;8.38;;;;;;;;;;5074363;28;20474;-87
2022/12/19 06:07:40;;;;;;;17.75;7.47;;;;;;;;;;5074108;28;20083;-86
2022/12/19 06:10:09;;;;;;;14.82;6.35;;;;;;;;;;5053816;28;20043;-86
2022/12/19 06:12:36;;;;;;;21.13;8.63;;;;;;;;;;5067692;28;20677;-85
2022/12/19 06:15:05;;;;;;;19.80;8.82;;;;;;;;;;5072233;28;20048;-86
2022/12/19 06:17:33;;;;;;;16.85;7.90;;;;;;;;;;5041783;28;20037;-86
2022/12/19 06:20:30;;;;;;;18.15;7.03;;;;;;;;;;5069514;28;20028;-86
2022/12/19 06:22:58;;;;;;;19.85;8.27;;;;;;;;;;5056752;28;20099;-85
2022/12/19 06:25:26;;;;;;;18.80;7.63;;;;;;;;;;5052981;28;20103;-86
2022/12/19 06:27:54;;;;;;;18.23;7.88;;;;;;;;;;5056178;28;20032;-86
2022/12/19 06:30:22;;;;;;;19.35;7.97;;;;;;;;;;5037822;28;20499;-87
2022/12/19 06:32:50;;;;;;;19.40;7.72;;;;;;;;;;5055403;28;20053;-87
2022/12/19 06:35:22;;;;;;;20.20;8.00;;;;;;;;;;5079258;28;20115;-88
2022/12/19 06:37:50;;;;;;;16.80;7.18;;;;;;;;;;5080388;28;20828;-87
2022/12/19 06:43:08;;;;;;;16.52;7.03;;;;;;;;;;5074706;28;20037;-88
2022/12/19 06:45:40;;;;;;;17.83;7.72;;;;;;;;;;5076846;28;20056;-86
2022/12/19 06:48:08;;;;;;;17.85;7.90;;;;;;;;;;5078164;28;20767;-87
2022/12/19 06:50:41;;;;;;;22.92;8.20;;;;;;;;;;5086354;28;20033;-89
2022/12/19 06:53:08;;;;;;;20.63;8.45;;;;;;;;;;5081626;28;20044;-87
2022/12/19 06:55:44;;;;;;;19.75;7.00;;;;;;;;;;5076515;28;20035;-87
2022/12/19 06:58:12;;;;;;;20.50;8.32;;;;;;;;;;5063044;28;20086;-87
2022/12/19 07:00:52;;;;;;;20.63;8.43;;;;;;;;;;5088102;28;20029;-87
2022/12/19 07:03:28;;;;;;;18.73;7.60;;;;;;;;;;5070663;28;20052;-87
2022/12/19 07:06:01;;;;;;;13.27;6.78;;;;;;;;;;5071681;28;20047;-87
2022/12/19 07:08:34;;;;;;;18.17;7.45;;;;;;;;;;5051035;28;20049;-87
2022/12/19 07:11:26;;;;;;;20.95;7.75;;;;;;;;;;5053835;28;20047;-87
2022/12/19 07:13:54;;;;;;;15.93;7.72;;;;;;;;;;5068625;28;20102;-87
2022/12/19 07:16:24;;;;;;;23.13;8.63;;;;;;;;;;5066441;28;20497;-86
2022/12/19 07:19:17;;;;;;;19.02;6.68;;;;;;;;;;5085452;28;20037;-85
2022/12/19 07:21:49;;;;;;;21.58;7.38;;;;;;;;;;5072315;28;20104;-87
2022/12/19 07:24:16;;;;;;;19.73;7.60;;;;;;;;;;5075396;28;20044;-86
2022/12/19 07:26:44;;;;;;;17.50;8.02;;;;;;;;;;5075069;28;20036;-86
2022/12/19 07:29:13;;;;;;;21.02;7.78;;;;;;;;;;5088663;28;20050;-86
2022/12/19 07:31:40;;;;;;;17.55;8.05;;;;;;;;;;5080166;28;20039;-86
2022/12/19 07:34:12;;;;;;;20.80;7.95;;;;;;;;;;5072326;28;20040;-86
2022/12/19 07:36:40;;;;;;;16.55;7.57;;;;;;;;;;5056101;28;20059;-86
2022/12/19 07:39:32;;;;;;;16.80;8.73;;;;;;;;;;5044656;28;21056;-86
2022/12/19 07:42:05;;;;;;;19.45;7.75;;;;;;;;;;5074580;28;20045;-86
2022/12/19 07:44:39;;;;;;;17.48;7.82;;;;;;;;;;5089321;28;20068;-87
2022/12/19 07:47:09;;;;;;;17.67;7.45;;;;;;;;;;5072673;28;20323;-86
2022/12/19 07:49:38;;;;;;;20.17;8.07;;;;;;;;;;5062079;28;20496;-87
2022/12/19 07:52:30;;;;;;;20.02;7.05;;;;;;;;;;5078630;28;20024;-85
2022/12/19 07:55:22;;;;;;;17.33;6.88;;;;;;;;;;5094033;28;20035;-85
2022/12/19 07:57:50;;;;;;;23.38;8.88;;;;;;;;;;5087395;28;20036;-86
2022/12/19 08:00:23;;;;;;;20.42;7.63;;;;;;;;;;5081655;28;20040;-87
2022/12/19 08:02:50;;;;;;;23.20;8.20;;;;;;;;;;5082958;28;20143;-86
2022/12/19 08:05:22;;;;;;;15.23;7.03;;;;;;;;;;5083129;28;20040;-86
2022/12/19 08:07:54;;;;;;;15.77;7.20;;;;;;;;;;5080301;28;20040;-85
2022/12/19 08:10:26;;;;;;;17.60;7.68;;;;;;;;;;5083281;28;20035;-85
2022/12/19 08:12:54;;;;;;;21.65;7.60;;;;;;;;;;5082382;28;20090;-85
2022/12/19 08:15:26;;;;;;;16.70;7.85;;;;;;;;;;5085961;28;20029;-86
2022/12/19 08:17:58;;;;;;;15.35;7.20;;;;;;;;;;5085853;28;20040;-86
2022/12/19 08:20:50;;;;;;;18.27;7.68;;;;;;;;;;5071845;28;20097;-86
2022/12/19 08:23:46;;;;;;;19.60;8.40;;;;;;;;;;5070090;28;20032;-85
2022/12/19 08:26:42;;;;;;;19.52;7.72;;;;;;;;;;5086370;28;20040;-86
2022/12/19 08:29:23;;;;;;;18.02;7.50;;;;;;;;;;5086525;28;20040;-85
2022/12/19 08:32:17;;;;;;;17.17;7.03;;;;;;;;;;5085091;28;20064;-86
2022/12/19 08:34:49;;;;;;;20.85;7.70;;;;;;;;;;5064429;28;20128;-86
2022/12/19 08:37:40;;;;;;;20.42;8.43;;;;;;;;;;5084506;28;20483;-87
2022/12/19 08:40:08;;;;;;;15.65;6.95;;;;;;;;;;5083844;28;20449;-86
2022/12/19 08:42:36;;;;;;;20.33;7.68;;;;;;;;;;5065682;28;20134;-86
2022/12/19 08:45:08;;;;;;;22.98;8.65;;;;;;;;;;5079022;28;20048;-87
2022/12/19 08:47:36;;;;;;;16.90;7.13;;;;;;;;;;5046202;28;20407;-86
2022/12/19 08:50:05;;;;;;;19.70;7.82;;;;;;;;;;5078011;28;20036;-85
2022/12/19 08:52:32;;;;;;;19.23;7.97;;;;;;;;;;5082102;28;20089;-86
2022/12/19 08:55:05;;;;;;;16.10;7.60;;;;;;;;;;5062564;28;20071;-86
2022/12/19 08:57:32;;;;;;;17.90;7.38;;;;;;;;;;5078520;28;20033;-86
2022/12/19 09:00:01;;;;;;;18.95;8.23;;;;;;;;;;5064278;28;20047;-87
2022/12/19 09:02:30;;;;;;;18.73;8.32;;;;;;;;;;5060911;28;20079;-86
2022/12/19 09:04:58;;;;;;;14.50;7.10;;;;;;;;;;5062469;28;20068;-86
2022/12/19 09:07:46;;;;;;;21.20;6.90;;;;;;;;;;5064582;28;20059;-86
2022/12/19 09:10:14;;;;;;;17.65;7.70;;;;;;;;;;5047236;28;20098;-85
2022/12/19 09:12:42;;;;;;;21.08;8.65;;;;;;;;;;5082456;28;20086;-85
2022/12/19 09:15:10;;;;;;;21.85;9.02;;;;;;;;;;5075659;28;20561;-85
2022/12/19 09:17:38;;;;;;;22.95;8.25;;;;;;;;;;5062364;28;20040;-85
2022/12/19 09:20:07;;;;;;;19.25;7.35;;;;;;;;;;5060597;28;20139;-85
2022/12/19 09:22:34;;;;;;;19.13;7.68;;;;;;;;;;5065737;28;20040;-85
2022/12/19 09:25:02;;;;;;;19.38;8.38;;;;;;;;;;5081369;28;20309;-84
2022/12/19 09:27:56;;;;;;;20.63;8.23;;;;;;;;;;5078978;28;20098;-84
2022/12/19 09:31:00;;;;;;;23.85;7.40;;;;;;;;;;5066694;28;20477;-84
2022/12/19 09:33:30;;;;;;;20.08;7.65;;;;;;;;;;5068353;28;20036;-85
2022/12/19 09:36:10;;;;;;;20.83;8.18;;;;;;;;;;5082555;28;20039;-84
2022/12/19 09:38:38;;;;;;;20.38;7.90;;;;;;;;;;5080174;28;20047;-84
2022/12/19 09:41:13;;;;;;;18.42;7.72;;;;;;;;;;5074872;28;20573;-85
2022/12/19 09:44:09;;;;;;;21.02;8.70;;;;;;;;;;5077464;28;20120;-84
2022/12/19 09:46:57;;;;;;;17.20;7.70;;;;;;;;;;5073572;28;20750;-84
2022/12/19 09:49:37;;;;;;;23.25;8.30;;;;;;;;;;5077951;28;20032;-84
2022/12/19 09:52:33;;;;;;;18.27;8.38;;;;;;;;;;5075007;28;20047;-83
2022/12/19 09:55:11;;;;;;;21.45;8.60;;;;;;;;;;5046904;28;20127;-84
2022/12/19 09:57:45;;;;;;;22.30;8.20;;;;;;;;;;5074414;28;20049;-84
2022/12/19 10:00:20;;;;;;;22.10;8.93;;;;;;;;;;5074500;28;20037;-85
2022/12/19 10:03:22;;;;;;;21.33;8.63;;;;;;;;;;5057273;28;20067;-85
2022/12/19 10:05:58;;;;;;;21.67;9.60;;;;;;;;;;5076504;28;20028;-83
2022/12/19 10:08:52;;;;;;;16.45;7.53;;;;;;;;;;5080278;28;20043;-83
2022/12/19 10:11:59;;;;;;;24.60;9.10;;;;;;;;;;5070175;28;20042;-84
2022/12/19 10:15:11;;;;;;;19.45;7.82;;;;;;;;;;5074790;28;20409;-84
2022/12/19 10:18:04;;;;;;;17.58;8.45;;;;;;;;;;5070728;28;20051;-84
2022/12/19 10:21:11;;;;;;;17.55;7.15;;;;;;;;;;5076243;28;20051;-84
2022/12/19 10:23:59;;;;;;;20.00;7.80;;;;;;;;;;5053537;28;20048;-83
2022/12/19 10:26:47;;;;;;;15.50;7.00;;;;;;;;;;5050435;28;20119;-84
2022/12/19 10:29:23;;;;;;;18.95;9.25;;;;;;;;;;5057406;28;20055;-84
2022/12/19 10:32:13;;;;;;;19.92;8.90;;;;;;;;;;5070064;28;20041;-84
2022/12/19 10:34:43;;;;;;;19.67;8.20;;;;;;;;;;5071566;28;20839;-83
2022/12/19 10:37:35;;;;;;;20.40;7.68;;;;;;;;;;5054714;28;20038;-84
2022/12/19 10:40:33;;;;;;;16.92;7.80;;;;;;;;;;5076645;28;20025;-84
2022/12/19 10:43:12;;;;;;;18.40;7.95;;;;;;;;;;5077844;28;20066;-84
2022/12/19 10:46:24;;;;;;;17.95;7.88;;;;;;;;;;5071891;28;20043;-84
2022/12/19 10:48:56;;;;;;;18.70;7.68;;;;;;;;;;5045768;28;20044;-84
2022/12/19 10:51:54;;;;;;;16.00;7.43;;;;;;;;;;5063011;28;20042;-83
2022/12/19 10:54:47;;;;;;;18.40;7.55;;;;;;;;;;5077041;28;20183;-83
2022/12/19 10:57:20;;;;;;;15.18;7.20;;;;;;;;;;5074382;28;20588;-84
2022/12/19 11:00:14;;;;;;;20.08;7.32;;;;;;;;;;5073296;28;20040;-84
2022/12/19 11:02:45;;;;;;;19.98;7.72;;;;;;;;;;5057031;28;20131;-84
2022/12/19 11:05:25;;;;;;;19.58;8.63;;;;;;;;;;5055648;28;20040;-84
2022/12/19 11:08:05;;;;;;;20.90;7.82;;;;;;;;;;5060924;28;20037;-84
2022/12/19 11:11:10;;;;;;;18.55;8.25;;;;;;;;;;5073547;28;20035;-84
2022/12/19 11:14:20;;;;;;;17.55;8.10;;;;;;;;;;5077112;28;20032;-84
2022/12/19 11:17:32;;;;;;;22.38;8.38;;;;;;;;;;5046841;28;20155;-84
2022/12/19 11:20:22;;;;;;;16.90;7.65;;;;;;;;;;5071674;28;20068;-84
2022/12/19 11:23:14;;;;;;;22.05;8.07;;;;;;;;;;5065062;28;20048;-84
2022/12/19 11:26:05;;;;;;;16.95;8.32;;;;;;;;;;5074028;28;20534;-84
2022/12/19 11:28:53;;;;;;;17.55;8.18;;;;;;;;;;5077055;28;20123;-84
2022/12/19 11:31:40;;;;;;;22.42;8.52;;;;;;;;;;5065114;28;20066;-84
2022/12/19 11:34:34;;;;;;;21.00;8.40;;;;;;;;;;5075631;28;20070;-84
2022/12/19 11:37:14;;;;;;;18.33;8.63;;;;;;;;;;5072388;28;20110;-84
2022/12/19 11:39:51;;;;;;;18.38;7.75;;;;;;;;;;5085350;28;20044;-84
2022/12/19 11:42:26;;;;;;;19.02;8.25;;;;;;;;;;5073223;28;20378;-83
2022/12/19 11:45:39;;;;;;;23.80;7.97;;;;;;;;;;5082546;28;20050;-85
2022/12/19 11:48:35;;;;;;;17.45;7.05;;;;;;;;;;5054177;28;20061;-85
2022/12/19 11:51:35;;;;;;;17.75;7.72;;;;;;;;;;5068728;28;20060;-85
2022/12/19 11:54:31;;;;;;;21.90;8.52;;;;;;;;;;5060193;28;20528;-85
2022/12/19 11:57:25;;;;;;;28.42;7.80;;;;;;;;;;5073001;28;20025;-85
2022/12/19 11:59:53;;;;;;;17.40;8.07;;;;;;;;;;5073885;28;20036;-85
2022/12/19 12:02:51;;;;;;;14.13;7.30;;;;;;;;;;5059209;28;20058;-85
2022/12/19 12:05:29;;;;;;;18.25;7.38;;;;;;;;;;5066941;28;20041;-84
2022/12/19 12:08:27;;;;;;;14.50;6.45;;;;;;;;;;5084079;28;20486;-84
2022/12/19 12:11:54;;;;;;;19.40;7.97;;;;;;;;;;5084134;28;20047;-84
2022/12/19 12:15:09;;;;;;;17.35;7.10;;;;;;;;;;5078283;28;20072;-84
2022/12/19 12:18:21;;;;;;;19.55;8.20;;;;;;;;;;5084517;28;20039;-85
2022/12/19 12:21:57;;;;;;;16.80;7.78;;;;;;;;;;5063989;28;20080;-83
2022/12/19 12:24:53;;;;;;;17.20;7.25;;;;;;;;;;5076339;28;20043;-83
2022/12/19 12:28:02;;;;;;;18.50;7.68;;;;;;;;;;5058741;28;20078;-83
2022/12/19 12:31:09;;;;;;;17.38;7.28;;;;;;;;;;5058887;28;20052;-84
2022/12/19 12:34:38;;;;;;;20.27;7.95;;;;;;;;;;5078980;28;20046;-84
2022/12/19 12:37:44;;;;;;;17.65;7.72;;;;;;;;;;5076887;28;20040;-83
2022/12/19 12:40:59;;;;;;;20.00;8.88;;;;;;;;;;5073322;28;20068;-83
2022/12/19 12:44:10;;;;;;;21.30;8.25;;;;;;;;;;5078340;28;20035;-84
2022/12/19 12:46:45;;;;;;;22.38;9.30;;;;;;;;;;5060516;28;20052;-84
2022/12/19 12:49:41;;;;;;;21.55;8.98;;;;;;;;;;5060136;28;20036;-83
2022/12/19 12:52:40;;;;;;;21.27;9.55;;;;;;;;;;5059167;28;20123;-84
2022/12/19 12:55:36;;;;;;;27.65;8.73;;;;;;;;;;5077659;28;20131;-84
2022/12/19 12:59:00;;;;;;;17.92;7.95;;;;;;;;;;5070700;28;20474;-85
2022/12/19 13:01:39;;;;;;;21.23;8.57;;;;;;;;;;5056889;28;20876;-84
2022/12/19 13:04:12;;;;;;;15.60;7.80;;;;;;;;;;5058247;28;20131;-84
2022/12/19 13:07:02;;;;;;;18.63;8.50;;;;;;;;;;5066388;28;20036;-84
2022/12/19 13:09:35;;;;;;;19.27;9.32;;;;;;;;;;5079145;28;20551;-84
2022/12/19 13:15:38;;;;;;;19.45;8.18;;;;;;;;;;5061515;28;20047;-84
2022/12/19 13:18:08;;;;;;;16.83;6.90;;;;;;;;;;5077524;28;20055;-86
2022/12/19 13:21:03;;;;;;;19.27;8.65;;;;;;;;;;5063102;28;20504;-84
2022/12/19 13:23:36;;;;;;;18.13;8.02;;;;;;;;;;5060862;28;20037;-85
2022/12/19 13:26:19;;;;;;;20.70;8.98;;;;;;;;;;5074861;28;20048;-85
2022/12/19 13:28:51;;;;;;;23.27;9.30;;;;;;;;;;5079593;28;20041;-84
2022/12/19 13:31:19;;;;;;;19.30;9.50;;;;;;;;;;5076553;28;20382;-85
2022/12/19 13:33:50;;;;;;;24.70;9.48;;;;;;;;;;5074477;28;20148;-85
2022/12/19 13:36:48;;;;;;;21.65;8.52;;;;;;;;;;5060470;28;20104;-84
2022/12/19 13:39:50;;;;;;;18.92;8.48;;;;;;;;;;5066771;28;20036;-85
2022/12/19 13:45:40;;;;;;;22.15;8.63;;;;;;;;;;5047970;28;20037;-85
2022/12/19 13:48:19;;;;;;;23.52;9.35;;;;;;;;;;5078497;28;20041;-85
2022/12/19 13:50:54;;;;;;;27.50;10.55;;;;;;;;;;5083826;28;20042;-85
2022/12/19 13:53:52;;;;;;;23.33;9.10;;;;;;;;;;5077129;28;20029;-84
2022/12/19 13:56:29;;;;;;;26.15;9.95;;;;;;;;;;5064970;28;20059;-84
2022/12/19 13:59:03;;;;;;;24.80;8.55;;;;;;;;;;5074939;28;20503;-85
2022/12/19 14:02:28;;;;;;;17.30;7.75;;;;;;;;;;5072544;28;20040;-85
2022/12/19 14:05:31;;;;;;;23.65;9.20;;;;;;;;;;5072394;28;20592;-85
2022/12/19 14:08:21;;;;;;;22.65;8.32;;;;;;;;;;5075967;28;20054;-84
2022/12/19 14:10:51;;;;;;;21.27;8.73;;;;;;;;;;5075030;28;20585;-84
2022/12/19 14:16:44;;;;;;;27.15;8.57;;;;;;;;;;5062691;28;20539;-85
2022/12/19 14:19:22;;;;;;;24.15;9.13;;;;;;;;;;5079223;28;20044;-85
2022/12/19 14:22:17;;;;;;;22.42;9.63;;;;;;;;;;5074532;28;20439;-85
2022/12/19 14:25:10;;;;;;;21.83;9.18;;;;;;;;;;5051345;28;20088;-85
2022/12/19 14:28:04;;;;;;;24.42;9.02;;;;;;;;;;5065833;28;20036;-85
2022/12/19 14:31:01;;;;;;;23.95;9.60;;;;;;;;;;5061299;28;20036;-84
2022/12/19 14:33:41;;;;;;;27.88;9.13;;;;;;;;;;5061518;28;20529;-85
2022/12/19 14:36:56;;;;;;;28.17;9.73;;;;;;;;;;5062720;28;20036;-84
2022/12/19 14:39:30;;;;;;;24.73;9.45;;;;;;;;;;5058177;28;20037;-84
2022/12/19 14:45:48;;;;;;;30.95;9.18;;;;;;;;;;5075676;28;20036;-85
2022/12/19 14:49:00;;;;;;;25.60;9.90;;;;;;;;;;5069659;28;20581;-85
2022/12/19 14:52:42;;;;;;;28.20;10.38;;;;;;;;;;5066415;28;20052;-85
2022/12/19 14:55:32;;;;;;;24.70;10.55;;;;;;;;;;5038145;28;20116;-84
2022/12/19 14:58:31;;;;;;;29.88;12.35;;;;;;;;;;5062455;28;20485;-83
2022/12/19 15:01:30;;;;;;;49.33;14.40;;;;;;;;;;5069864;28;20040;-84
2022/12/19 15:04:01;;;;;;;47.20;16.98;;;;;;;;;;5083610;28;20040;-83
2022/12/19 15:06:57;;;;;;;40.65;13.75;;;;;;;;;;5067710;28;20028;-84
2022/12/19 15:10:06;;;;;;;40.95;13.73;;;;;;;;;;5080001;28;20123;-83
2022/12/19 15:13:19;;;;;;;38.75;14.23;;;;;;;;;;4999477;28;20046;-83
2022/12/19 15:16:24;;;;;;;33.42;13.32;;;;;;;;;;5003470;28;20061;-83
2022/12/19 15:19:16;;;;;;;34.15;13.27;;;;;;;;;;5011140;28;20060;-83
2022/12/19 15:21:44;;;;;;;34.75;13.65;;;;;;;;;;5004561;28;20045;-83
2022/12/19 15:24:12;;;;;;;32.08;13.57;;;;;;;;;;4992532;28;20055;-83
2022/12/19 15:27:04;;;;;;;35.92;13.25;;;;;;;;;;5012869;28;20116;-83
2022/12/19 15:29:33;;;;;;;36.67;13.18;;;;;;;;;;5002622;28;20050;-83
2022/12/19 15:32:00;;;;;;;36.60;13.75;;;;;;;;;;5000417;28;20046;-83
2022/12/19 15:34:33;;;;;;;44.00;14.00;;;;;;;;;;5003267;28;20052;-83
2022/12/19 15:37:11;;;;;;;31.48;13.20;;;;;;;;;;5005839;28;20050;-83
2022/12/19 15:39:39;;;;;;;37.30;13.18;;;;;;;;;;4991492;28;20046;-83
2022/12/19 15:42:17;;;;;;;36.20;13.27;;;;;;;;;;5010978;28;20049;-83
2022/12/19 15:44:46;;;;;;;37.78;12.25;;;;;;;;;;5005626;28;20043;-83
2022/12/19 15:47:18;;;;;;;39.78;13.27;;;;;;;;;;5006504;28;20038;-83
2022/12/19 15:49:46;;;;;;;35.47;12.90;;;;;;;;;;5041615;28;20055;-83
2022/12/19 15:52:20;;;;;;;34.42;12.20;;;;;;;;;;5074506;28;20040;-83
2022/12/19 15:54:55;;;;;;;38.13;12.73;;;;;;;;;;5086436;28;20493;-83
2022/12/19 15:57:31;;;;;;;32.85;12.50;;;;;;;;;;5088622;28;20052;-83
2022/12/19 16:00:18;;;;;;;36.00;13.85;;;;;;;;;;5089478;28;20071;-83
2022/12/19 16:02:46;;;;;;;42.47;13.40;;;;;;;;;;5087111;28;20040;-84
2022/12/19 16:05:45;;;;;;;40.42;13.52;;;;;;;;;;5093103;28;20399;-84
2022/12/19 16:08:38;;;;;;;37.58;14.07;;;;;;;;;;5071783;28;20037;-83
2022/12/19 16:11:17;;;;;;;44.60;14.18;;;;;;;;;;5092222;28;20100;-83
2022/12/19 16:13:50;;;;;;;51.08;15.60;;;;;;;;;;5084978;28;20037;-83
2022/12/19 16:16:22;;;;;;;40.03;13.52;;;;;;;;;;5084129;28;20101;-83
2022/12/19 16:18:50;;;;;;;49.72;15.30;;;;;;;;;;5090565;28;20045;-84